EUS17ST LKPR-EGPH
Flight info
| Callsign | EUS17ST |
|---|---|
| Flight time | 2h 6m |
| Altitude | 38000 |
| Route | BALTU DCT DONAD DCT VARIK L602 SODRO DCT KATCE DCT ANDIK DCT MIMVA L602 NALAX L46 ESHIN N110 ERKIT DCT AGPED |
| Aircraft | A320/M-SDE3FGHIRWY/LB1 |
Departure
| Time | 2026-04-25 06:29 |
|---|---|
| Airport | Václav Havel Airport Prague (LKPR) |
Arrival
| Time | 2026-04-25 08:36 |
|---|---|
| Airport | Edinburgh Airport (EGPH) |
| Time | Latitude | Longitude | Altitude | Speed | Heading |
|---|---|---|---|---|---|
| 2026-04-25 06:19 | 50.10690 | 14.26369 | 1173 ft | 0 kts | 214° |
| 2026-04-25 06:22 | 50.10690 | 14.26370 | 1173 ft | 0 kts | 214° |
| 2026-04-25 06:22 | 50.10701 | 14.26381 | 1173 ft | 3 kts | 218° |
| 2026-04-25 06:22 | 50.10716 | 14.26402 | 1172 ft | 3 kts | 231° |
| 2026-04-25 06:22 | 50.10726 | 14.26427 | 1174 ft | 3 kts | 256° |
| 2026-04-25 06:23 | 50.10727 | 14.26454 | 1173 ft | 2 kts | 300° |
| 2026-04-25 06:23 | 50.10722 | 14.26464 | 1172 ft | 1 kts | 305° |
| 2026-04-25 06:23 | 50.10722 | 14.26465 | 1172 ft | 0 kts | 305° |
| 2026-04-25 06:25 | 50.10748 | 14.26408 | 1174 ft | 11 kts | 305° |
| 2026-04-25 06:25 | 50.10796 | 14.26304 | 1173 ft | 12 kts | 307° |
| 2026-04-25 06:25 | 50.10867 | 14.26319 | 1174 ft | 14 kts | 35° |
| 2026-04-25 06:26 | 50.10950 | 14.26410 | 1173 ft | 14 kts | 35° |
| 2026-04-25 06:26 | 50.11031 | 14.26495 | 1171 ft | 14 kts | 33° |
| 2026-04-25 06:26 | 50.11111 | 14.26576 | 1172 ft | 13 kts | 34° |
| 2026-04-25 06:26 | 50.11187 | 14.26659 | 1170 ft | 13 kts | 36° |
| 2026-04-25 06:27 | 50.11245 | 14.26803 | 1168 ft | 18 kts | 65° |
| 2026-04-25 06:27 | 50.11306 | 14.27008 | 1166 ft | 23 kts | 64° |
| 2026-04-25 06:27 | 50.11375 | 14.27229 | 1168 ft | 22 kts | 64° |
| 2026-04-25 06:27 | 50.11443 | 14.27416 | 1168 ft | 15 kts | 31° |
| 2026-04-25 06:28 | 50.11499 | 14.27389 | 1168 ft | 6 kts | 330° |
| 2026-04-25 06:28 | 50.11523 | 14.27368 | 1169 ft | 3 kts | 330° |
| 2026-04-25 06:28 | 50.11576 | 14.27289 | 1169 ft | 15 kts | 278° |
| 2026-04-25 06:28 | 50.11530 | 14.27122 | 1167 ft | 23 kts | 245° |
| 2026-04-25 06:29 | 50.11355 | 14.26539 | 1167 ft | 95 kts | 245° |
| 2026-04-25 06:29 | 50.10989 | 14.25320 | 1175 ft | 150 kts | 245° |
| 2026-04-25 06:29 | 50.10523 | 14.23790 | 1740 ft | 156 kts | 244° |
| 2026-04-25 06:29 | 50.10047 | 14.22240 | 2524 ft | 158 kts | 247° |
| 2026-04-25 06:30 | 50.09578 | 14.20663 | 3196 ft | 166 kts | 250° |
| 2026-04-25 06:30 | 50.09069 | 14.18923 | 3572 ft | 188 kts | 249° |
| 2026-04-25 06:30 | 50.08487 | 14.16960 | 3890 ft | 212 kts | 249° |
| 2026-04-25 06:30 | 50.07830 | 14.14760 | 4370 ft | 236 kts | 249° |
| 2026-04-25 06:31 | 50.07101 | 14.12330 | 4957 ft | 257 kts | 249° |
| 2026-04-25 06:31 | 50.06328 | 14.09770 | 5841 ft | 264 kts | 249° |
| 2026-04-25 06:31 | 50.05542 | 14.07170 | 6777 ft | 268 kts | 250° |
| 2026-04-25 06:31 | 50.05058 | 14.04355 | 7657 ft | 267 kts | 271° |
| 2026-04-25 06:32 | 50.05328 | 14.01525 | 8564 ft | 265 kts | 293° |
| 2026-04-25 06:32 | 50.06277 | 13.99123 | 9485 ft | 267 kts | 314° |
| 2026-04-25 06:32 | 50.07744 | 13.97328 | 10298 ft | 275 kts | 325° |
| 2026-04-25 06:32 | 50.09388 | 13.95576 | 10634 ft | 298 kts | 325° |
| 2026-04-25 06:33 | 50.11165 | 13.93678 | 10911 ft | 322 kts | 325° |
| 2026-04-25 06:33 | 50.13065 | 13.91641 | 11296 ft | 338 kts | 324° |
| 2026-04-25 06:33 | 50.15019 | 13.89529 | 11988 ft | 344 kts | 323° |
| 2026-04-25 06:33 | 50.16738 | 13.86908 | 12734 ft | 349 kts | 307° |
| 2026-04-25 06:34 | 50.17912 | 13.83578 | 13455 ft | 355 kts | 291° |
| 2026-04-25 06:34 | 50.18414 | 13.79787 | 14155 ft | 362 kts | 274° |
| 2026-04-25 06:34 | 50.18164 | 13.75862 | 14842 ft | 369 kts | 258° |
| 2026-04-25 06:34 | 50.17379 | 13.72029 | 15555 ft | 371 kts | 254° |
| 2026-04-25 06:35 | 50.16562 | 13.68201 | 16252 ft | 373 kts | 254° |
| 2026-04-25 06:35 | 50.15740 | 13.64351 | 16944 ft | 375 kts | 254° |
| 2026-04-25 06:35 | 50.14912 | 13.60484 | 17612 ft | 377 kts | 254° |
| 2026-04-25 06:35 | 50.14079 | 13.56593 | 18274 ft | 380 kts | 254° |
| 2026-04-25 06:36 | 50.13241 | 13.52672 | 18848 ft | 381 kts | 255° |
| 2026-04-25 06:36 | 50.12404 | 13.48743 | 19420 ft | 383 kts | 255° |
| 2026-04-25 06:36 | 50.11562 | 13.44795 | 19999 ft | 385 kts | 255° |
| 2026-04-25 06:36 | 50.10712 | 13.40836 | 20559 ft | 386 kts | 255° |
| 2026-04-25 06:37 | 50.09855 | 13.36859 | 21082 ft | 388 kts | 255° |
| 2026-04-25 06:37 | 50.09120 | 13.32811 | 21593 ft | 388 kts | 262° |
| 2026-04-25 06:37 | 50.08833 | 13.28643 | 22126 ft | 387 kts | 270° |
| 2026-04-25 06:37 | 50.08733 | 13.24444 | 22658 ft | 389 kts | 270° |
| 2026-04-25 06:38 | 50.08631 | 13.20230 | 23182 ft | 391 kts | 269° |
| 2026-04-25 06:38 | 50.08524 | 13.15993 | 23681 ft | 392 kts | 269° |
| 2026-04-25 06:38 | 50.08412 | 13.11746 | 24104 ft | 394 kts | 269° |
| 2026-04-25 06:38 | 50.08297 | 13.07477 | 24521 ft | 395 kts | 269° |
| 2026-04-25 06:39 | 50.08323 | 13.03193 | 24919 ft | 396 kts | 276° |
| 2026-04-25 06:39 | 50.08823 | 12.98983 | 25316 ft | 398 kts | 285° |
| 2026-04-25 06:39 | 50.09812 | 12.94950 | 25704 ft | 401 kts | 295° |
| 2026-04-25 06:39 | 50.11127 | 12.91109 | 26076 ft | 403 kts | 296° |
| 2026-04-25 06:40 | 50.12455 | 12.87264 | 26434 ft | 405 kts | 296° |
| 2026-04-25 06:40 | 50.13789 | 12.83385 | 26784 ft | 407 kts | 296° |
| 2026-04-25 06:40 | 50.15118 | 12.79492 | 27130 ft | 409 kts | 295° |
| 2026-04-25 06:40 | 50.16457 | 12.75562 | 27471 ft | 410 kts | 295° |
| 2026-04-25 06:41 | 50.17798 | 12.71621 | 27819 ft | 412 kts | 295° |
| 2026-04-25 06:41 | 50.19141 | 12.67666 | 28181 ft | 413 kts | 295° |
| 2026-04-25 06:41 | 50.20492 | 12.63692 | 28523 ft | 415 kts | 295° |
| 2026-04-25 06:41 | 50.21844 | 12.59709 | 28854 ft | 416 kts | 295° |
| 2026-04-25 06:42 | 50.23189 | 12.55726 | 29313 ft | 414 kts | 295° |
| 2026-04-25 06:42 | 50.24527 | 12.51757 | 29779 ft | 412 kts | 295° |
| 2026-04-25 06:42 | 50.25861 | 12.47795 | 30215 ft | 411 kts | 295° |
| 2026-04-25 06:42 | 50.26743 | 12.45169 | 30453 ft | 411 kts | 295° |
| 2026-04-25 06:43 | 50.28071 | 12.41208 | 30812 ft | 411 kts | 295° |
| 2026-04-25 06:43 | 50.29391 | 12.37257 | 31168 ft | 410 kts | 294° |
| 2026-04-25 06:43 | 50.30656 | 12.33259 | 31521 ft | 409 kts | 293° |
| 2026-04-25 06:43 | 50.31859 | 12.29227 | 31887 ft | 408 kts | 292° |
| 2026-04-25 06:44 | 50.33026 | 12.25174 | 32260 ft | 408 kts | 292° |
| 2026-04-25 06:44 | 50.34181 | 12.21130 | 32611 ft | 407 kts | 292° |
| 2026-04-25 06:44 | 50.35364 | 12.17099 | 32989 ft | 407 kts | 293° |
| 2026-04-25 06:44 | 50.36609 | 12.13117 | 33349 ft | 407 kts | 294° |
| 2026-04-25 06:45 | 50.37893 | 12.09175 | 33716 ft | 406 kts | 295° |
| 2026-04-25 06:45 | 50.39193 | 12.05241 | 34049 ft | 407 kts | 295° |
| 2026-04-25 06:45 | 50.40494 | 12.01302 | 34343 ft | 407 kts | 295° |
| 2026-04-25 06:45 | 50.41784 | 11.97357 | 34638 ft | 407 kts | 295° |
| 2026-04-25 06:46 | 50.43064 | 11.93397 | 34946 ft | 406 kts | 295° |
| 2026-04-25 06:46 | 50.44331 | 11.89441 | 35258 ft | 406 kts | 295° |
| 2026-04-25 06:46 | 50.45597 | 11.85490 | 35552 ft | 405 kts | 295° |
| 2026-04-25 06:46 | 50.47076 | 11.81712 | 35830 ft | 408 kts | 304° |
| 2026-04-25 06:47 | 50.48890 | 11.78273 | 36103 ft | 409 kts | 307° |
| 2026-04-25 06:47 | 50.50747 | 11.74889 | 36355 ft | 409 kts | 307° |
| 2026-04-25 06:47 | 50.52604 | 11.71506 | 36631 ft | 409 kts | 307° |
| 2026-04-25 06:47 | 50.54454 | 11.68125 | 36886 ft | 408 kts | 307° |
| 2026-04-25 06:48 | 50.56302 | 11.64742 | 37116 ft | 408 kts | 307° |
| 2026-04-25 06:48 | 50.58151 | 11.61346 | 37354 ft | 408 kts | 307° |
| 2026-04-25 06:48 | 50.59995 | 11.57949 | 37601 ft | 408 kts | 307° |
| 2026-04-25 06:48 | 50.61837 | 11.54548 | 37849 ft | 408 kts | 307° |
| 2026-04-25 06:49 | 50.63675 | 11.51152 | 38050 ft | 408 kts | 307° |
| 2026-04-25 06:49 | 50.67353 | 11.44349 | 38099 ft | 407 kts | 307° |
| 2026-04-25 06:50 | 50.71021 | 11.37545 | 38098 ft | 407 kts | 307° |
| 2026-04-25 06:50 | 50.74683 | 11.30729 | 38096 ft | 407 kts | 307° |
| 2026-04-25 06:51 | 50.78340 | 11.23911 | 38108 ft | 407 kts | 307° |
| 2026-04-25 06:51 | 50.82002 | 11.17074 | 38129 ft | 407 kts | 307° |
| 2026-04-25 06:52 | 50.85652 | 11.10226 | 38129 ft | 407 kts | 307° |
| 2026-04-25 06:52 | 50.89294 | 11.03375 | 38125 ft | 406 kts | 307° |
| 2026-04-25 06:53 | 50.92927 | 10.96531 | 38118 ft | 406 kts | 307° |
| 2026-04-25 06:53 | 50.96563 | 10.89677 | 38110 ft | 406 kts | 307° |
| 2026-04-25 06:54 | 51.00189 | 10.82811 | 38119 ft | 406 kts | 307° |
| 2026-04-25 06:54 | 51.03782 | 10.75978 | 38120 ft | 406 kts | 307° |
| 2026-04-25 06:55 | 51.07398 | 10.69089 | 38124 ft | 406 kts | 307° |
| 2026-04-25 06:55 | 51.11005 | 10.62197 | 38141 ft | 405 kts | 307° |
| 2026-04-25 06:56 | 51.14605 | 10.55300 | 38138 ft | 405 kts | 307° |
| 2026-04-25 06:56 | 51.18194 | 10.48396 | 38124 ft | 405 kts | 307° |
| 2026-04-25 06:57 | 51.21783 | 10.41490 | 38122 ft | 405 kts | 307° |
| 2026-04-25 06:57 | 51.25268 | 10.34435 | 38126 ft | 403 kts | 300° |
| 2026-04-25 06:58 | 51.27881 | 10.26542 | 38132 ft | 402 kts | 295° |
| 2026-04-25 06:58 | 51.30443 | 10.18596 | 38129 ft | 402 kts | 296° |
| 2026-04-25 06:59 | 51.33017 | 10.10658 | 38134 ft | 402 kts | 296° |
| 2026-04-25 06:59 | 51.35575 | 10.02695 | 38131 ft | 403 kts | 296° |
| 2026-04-25 07:00 | 51.38130 | 9.94693 | 38127 ft | 404 kts | 296° |
| 2026-04-25 07:00 | 51.40672 | 9.86724 | 38148 ft | 405 kts | 296° |
| 2026-04-25 07:01 | 51.43258 | 9.78607 | 38144 ft | 407 kts | 296° |
| 2026-04-25 07:01 | 51.45810 | 9.70566 | 38137 ft | 408 kts | 296° |
| 2026-04-25 07:02 | 51.48377 | 9.62430 | 38133 ft | 409 kts | 296° |
| 2026-04-25 07:02 | 51.50957 | 9.54214 | 38136 ft | 410 kts | 296° |
| 2026-04-25 07:03 | 51.53527 | 9.46044 | 38142 ft | 410 kts | 296° |
| 2026-04-25 07:03 | 51.56094 | 9.37864 | 38147 ft | 410 kts | 296° |
| 2026-04-25 07:04 | 51.58652 | 9.29676 | 38157 ft | 410 kts | 296° |
| 2026-04-25 07:04 | 51.61196 | 9.21474 | 38161 ft | 410 kts | 296° |
| 2026-04-25 07:05 | 51.63736 | 9.13252 | 38169 ft | 410 kts | 296° |
| 2026-04-25 07:05 | 51.66274 | 9.05018 | 38176 ft | 410 kts | 296° |
| 2026-04-25 07:06 | 51.68809 | 8.96778 | 38178 ft | 410 kts | 296° |
| 2026-04-25 07:06 | 51.71340 | 8.88531 | 38205 ft | 410 kts | 296° |
| 2026-04-25 07:07 | 51.73865 | 8.80267 | 38186 ft | 411 kts | 296° |
| 2026-04-25 07:07 | 51.76388 | 8.71975 | 38160 ft | 412 kts | 296° |
| 2026-04-25 07:08 | 51.78908 | 8.63668 | 38162 ft | 412 kts | 296° |
| 2026-04-25 07:08 | 51.81425 | 8.55339 | 38163 ft | 413 kts | 296° |
| 2026-04-25 07:09 | 51.83937 | 8.46985 | 38171 ft | 413 kts | 296° |
| 2026-04-25 07:09 | 51.86447 | 8.38623 | 38172 ft | 414 kts | 296° |
| 2026-04-25 07:10 | 51.88958 | 8.30239 | 38167 ft | 414 kts | 297° |
| 2026-04-25 07:10 | 51.91465 | 8.21852 | 38178 ft | 414 kts | 297° |
| 2026-04-25 07:11 | 51.93971 | 8.13431 | 38187 ft | 415 kts | 297° |
| 2026-04-25 07:11 | 51.96467 | 8.04998 | 38195 ft | 415 kts | 297° |
| 2026-04-25 07:12 | 51.98961 | 7.96535 | 38199 ft | 416 kts | 297° |
| 2026-04-25 07:12 | 52.02692 | 7.83831 | 38208 ft | 415 kts | 297° |
| 2026-04-25 07:13 | 52.05162 | 7.75366 | 38214 ft | 414 kts | 297° |
| 2026-04-25 07:13 | 52.07627 | 7.66903 | 38215 ft | 414 kts | 297° |
| 2026-04-25 07:14 | 52.10088 | 7.58456 | 38212 ft | 413 kts | 297° |
| 2026-04-25 07:14 | 52.12536 | 7.50012 | 38211 ft | 413 kts | 296° |
| 2026-04-25 07:15 | 52.14970 | 7.41558 | 38213 ft | 412 kts | 296° |
| 2026-04-25 07:15 | 52.17401 | 7.33105 | 38201 ft | 412 kts | 296° |
| 2026-04-25 07:16 | 52.19820 | 7.24647 | 38213 ft | 412 kts | 296° |
| 2026-04-25 07:16 | 52.22228 | 7.16180 | 38215 ft | 412 kts | 296° |
| 2026-04-25 07:17 | 52.24639 | 7.07703 | 38218 ft | 411 kts | 296° |
| 2026-04-25 07:17 | 52.27040 | 6.99231 | 38218 ft | 411 kts | 296° |
| 2026-04-25 07:18 | 52.29433 | 6.90748 | 38210 ft | 411 kts | 296° |
| 2026-04-25 07:18 | 52.31803 | 6.82321 | 38212 ft | 411 kts | 296° |
| 2026-04-25 07:19 | 52.34183 | 6.73828 | 38241 ft | 411 kts | 296° |
| 2026-04-25 07:19 | 52.36551 | 6.65337 | 38233 ft | 410 kts | 296° |
| 2026-04-25 07:20 | 52.38919 | 6.56830 | 38237 ft | 410 kts | 296° |
| 2026-04-25 07:20 | 52.41274 | 6.48336 | 38230 ft | 410 kts | 295° |
| 2026-04-25 07:21 | 52.43620 | 6.39837 | 38208 ft | 409 kts | 295° |
| 2026-04-25 07:21 | 52.45955 | 6.31332 | 38213 ft | 409 kts | 295° |
| 2026-04-25 07:22 | 52.48285 | 6.22820 | 38216 ft | 409 kts | 295° |
| 2026-04-25 07:22 | 52.50615 | 6.14302 | 38216 ft | 409 kts | 295° |
| 2026-04-25 07:23 | 52.52935 | 6.05773 | 38213 ft | 409 kts | 295° |
| 2026-04-25 07:23 | 52.55251 | 5.97231 | 38202 ft | 409 kts | 295° |
| 2026-04-25 07:24 | 52.57561 | 5.88683 | 38207 ft | 409 kts | 295° |
| 2026-04-25 07:24 | 52.59865 | 5.80124 | 38222 ft | 410 kts | 295° |
| 2026-04-25 07:25 | 52.62170 | 5.71540 | 38223 ft | 410 kts | 295° |
| 2026-04-25 07:25 | 52.64449 | 5.62998 | 38235 ft | 410 kts | 295° |
| 2026-04-25 07:26 | 52.66737 | 5.54353 | 38239 ft | 409 kts | 295° |
| 2026-04-25 07:26 | 52.69008 | 5.45755 | 38226 ft | 409 kts | 295° |
| 2026-04-25 07:27 | 52.71265 | 5.37223 | 38224 ft | 409 kts | 295° |
| 2026-04-25 07:27 | 52.73528 | 5.28627 | 38219 ft | 409 kts | 294° |
| 2026-04-25 07:28 | 52.75362 | 5.19741 | 38220 ft | 410 kts | 289° |
| 2026-04-25 07:28 | 52.76803 | 5.12231 | 38225 ft | 410 kts | 289° |
| 2026-04-25 07:29 | 52.78516 | 5.03276 | 38223 ft | 410 kts | 289° |
| 2026-04-25 07:29 | 52.80236 | 4.94268 | 38210 ft | 410 kts | 289° |
| 2026-04-25 07:30 | 52.81945 | 4.85266 | 38219 ft | 411 kts | 289° |
| 2026-04-25 07:30 | 52.83652 | 4.76240 | 38222 ft | 411 kts | 289° |
| 2026-04-25 07:31 | 52.85353 | 4.67214 | 38223 ft | 412 kts | 289° |
| 2026-04-25 07:31 | 52.87048 | 4.58165 | 38222 ft | 412 kts | 289° |
| 2026-04-25 07:32 | 52.88732 | 4.49099 | 38223 ft | 412 kts | 289° |
| 2026-04-25 07:32 | 52.90410 | 4.40031 | 38232 ft | 412 kts | 289° |
| 2026-04-25 07:33 | 52.92089 | 4.30953 | 38228 ft | 412 kts | 289° |
| 2026-04-25 07:33 | 52.93758 | 4.21867 | 38242 ft | 412 kts | 288° |
| 2026-04-25 07:34 | 52.95414 | 4.12784 | 38239 ft | 411 kts | 288° |
| 2026-04-25 07:34 | 52.97062 | 4.03703 | 38219 ft | 411 kts | 288° |
| 2026-04-25 07:35 | 52.98706 | 3.94614 | 38216 ft | 412 kts | 288° |
| 2026-04-25 07:35 | 53.00344 | 3.85507 | 38222 ft | 412 kts | 288° |
| 2026-04-25 07:36 | 53.01980 | 3.76384 | 38222 ft | 412 kts | 288° |
| 2026-04-25 07:36 | 53.03607 | 3.67249 | 38221 ft | 412 kts | 288° |
| 2026-04-25 07:37 | 53.05229 | 3.58098 | 38230 ft | 413 kts | 288° |
| 2026-04-25 07:37 | 53.06845 | 3.48943 | 38209 ft | 413 kts | 288° |
| 2026-04-25 07:38 | 53.08452 | 3.39766 | 38193 ft | 414 kts | 287° |
| 2026-04-25 07:38 | 53.10038 | 3.30627 | 38198 ft | 414 kts | 287° |
| 2026-04-25 07:39 | 53.11428 | 3.21311 | 38185 ft | 415 kts | 284° |
| 2026-04-25 07:39 | 53.12611 | 3.11907 | 38185 ft | 415 kts | 283° |
| 2026-04-25 07:40 | 53.13786 | 3.02489 | 38205 ft | 415 kts | 283° |
| 2026-04-25 07:40 | 53.15013 | 2.93086 | 38210 ft | 416 kts | 284° |
| 2026-04-25 07:41 | 53.16249 | 2.83673 | 38220 ft | 416 kts | 283° |
| 2026-04-25 07:41 | 53.17469 | 2.74252 | 38221 ft | 416 kts | 283° |
| 2026-04-25 07:42 | 53.18681 | 2.64824 | 38226 ft | 416 kts | 283° |
| 2026-04-25 07:42 | 53.19888 | 2.55391 | 38219 ft | 416 kts | 283° |
| 2026-04-25 07:43 | 53.21092 | 2.45938 | 38203 ft | 417 kts | 283° |
| 2026-04-25 07:43 | 53.22285 | 2.36479 | 38207 ft | 417 kts | 283° |
| 2026-04-25 07:44 | 53.23472 | 2.27001 | 38225 ft | 417 kts | 283° |
| 2026-04-25 07:44 | 53.24649 | 2.17513 | 38224 ft | 417 kts | 283° |
| 2026-04-25 07:45 | 53.25812 | 2.08011 | 38221 ft | 417 kts | 283° |
| 2026-04-25 07:45 | 53.26975 | 1.98522 | 38210 ft | 418 kts | 282° |
| 2026-04-25 07:46 | 53.28129 | 1.89012 | 38210 ft | 418 kts | 282° |
| 2026-04-25 07:46 | 53.29285 | 1.79478 | 38211 ft | 419 kts | 282° |
| 2026-04-25 07:47 | 53.30430 | 1.69930 | 38210 ft | 419 kts | 282° |
| 2026-04-25 07:47 | 53.31552 | 1.60434 | 38214 ft | 419 kts | 282° |
| 2026-04-25 07:48 | 53.32677 | 1.50869 | 38202 ft | 419 kts | 282° |
| 2026-04-25 07:48 | 53.33977 | 1.41344 | 38197 ft | 420 kts | 284° |
| 2026-04-25 07:49 | 53.35423 | 1.31860 | 38199 ft | 421 kts | 284° |
| 2026-04-25 07:49 | 53.36850 | 1.22347 | 38204 ft | 422 kts | 284° |
| 2026-04-25 07:50 | 53.38223 | 1.12794 | 38204 ft | 422 kts | 284° |
| 2026-04-25 07:50 | 53.39573 | 1.03222 | 38207 ft | 422 kts | 283° |
| 2026-04-25 07:51 | 53.40920 | 0.93639 | 38193 ft | 423 kts | 283° |
| 2026-04-25 07:51 | 53.42274 | 0.84024 | 38193 ft | 424 kts | 283° |
| 2026-04-25 07:52 | 53.43621 | 0.74391 | 38195 ft | 425 kts | 283° |
| 2026-04-25 07:52 | 53.44962 | 0.64734 | 38204 ft | 425 kts | 283° |
| 2026-04-25 07:53 | 53.46296 | 0.55071 | 38207 ft | 425 kts | 283° |
| 2026-04-25 07:53 | 53.47621 | 0.45387 | 38201 ft | 426 kts | 282° |
| 2026-04-25 07:54 | 53.48940 | 0.35695 | 38199 ft | 426 kts | 282° |
| 2026-04-25 07:54 | 53.50259 | 0.25972 | 38201 ft | 427 kts | 282° |
| 2026-04-25 07:55 | 53.51566 | 0.16240 | 38205 ft | 427 kts | 282° |
| 2026-04-25 07:55 | 53.52869 | 0.06489 | 38211 ft | 428 kts | 282° |
| 2026-04-25 07:56 | 53.54154 | -0.03216 | 38225 ft | 428 kts | 282° |
| 2026-04-25 07:56 | 53.55439 | -0.13007 | 38217 ft | 429 kts | 281° |
| 2026-04-25 07:57 | 53.56845 | -0.22769 | 38216 ft | 431 kts | 289° |
| 2026-04-25 07:57 | 53.59816 | -0.31506 | 38215 ft | 434 kts | 309° |
| 2026-04-25 07:58 | 53.64431 | -0.38079 | 38211 ft | 438 kts | 324° |
| 2026-04-25 07:58 | 53.69470 | -0.43878 | 38212 ft | 439 kts | 323° |
| 2026-04-25 07:59 | 53.74504 | -0.49707 | 38220 ft | 439 kts | 323° |
| 2026-04-25 07:59 | 53.79531 | -0.55549 | 38221 ft | 438 kts | 323° |
| 2026-04-25 08:00 | 53.84558 | -0.61402 | 38218 ft | 438 kts | 323° |
| 2026-04-25 08:00 | 53.89573 | -0.67254 | 38218 ft | 438 kts | 323° |
| 2026-04-25 08:01 | 53.94591 | -0.73112 | 38217 ft | 438 kts | 323° |
| 2026-04-25 08:01 | 53.99606 | -0.78983 | 38224 ft | 438 kts | 323° |
| 2026-04-25 08:02 | 54.04637 | -0.84811 | 38226 ft | 438 kts | 326° |
| 2026-04-25 08:02 | 54.09868 | -0.90125 | 38226 ft | 438 kts | 328° |
| 2026-04-25 08:03 | 54.15183 | -0.95204 | 38229 ft | 438 kts | 328° |
| 2026-04-25 08:03 | 54.20469 | -1.00369 | 38229 ft | 437 kts | 328° |
| 2026-04-25 08:04 | 54.25707 | -1.05642 | 38243 ft | 437 kts | 327° |
| 2026-04-25 08:04 | 54.30932 | -1.10948 | 38220 ft | 437 kts | 327° |
| 2026-04-25 08:05 | 54.36166 | -1.16263 | 38212 ft | 437 kts | 328° |
| 2026-04-25 08:05 | 54.41410 | -1.21571 | 38232 ft | 438 kts | 328° |
| 2026-04-25 08:06 | 54.46662 | -1.26902 | 38241 ft | 439 kts | 327° |
| 2026-04-25 08:06 | 54.51913 | -1.32247 | 38257 ft | 438 kts | 328° |
| 2026-04-25 08:07 | 54.57156 | -1.37605 | 38265 ft | 438 kts | 328° |
| 2026-04-25 08:07 | 54.62392 | -1.42975 | 38265 ft | 438 kts | 327° |
| 2026-04-25 08:08 | 54.67626 | -1.48363 | 38260 ft | 437 kts | 327° |
| 2026-04-25 08:08 | 54.72849 | -1.53753 | 38253 ft | 437 kts | 327° |
| 2026-04-25 08:09 | 54.78063 | -1.59152 | 38267 ft | 436 kts | 327° |
| 2026-04-25 08:09 | 54.83262 | -1.64559 | 37585 ft | 438 kts | 327° |
| 2026-04-25 08:10 | 54.85870 | -1.67278 | 36914 ft | 437 kts | 327° |
| 2026-04-25 08:10 | 54.88483 | -1.70002 | 36100 ft | 439 kts | 327° |
| 2026-04-25 08:10 | 54.91106 | -1.72736 | 35242 ft | 442 kts | 327° |
| 2026-04-25 08:10 | 54.93754 | -1.75500 | 34386 ft | 445 kts | 327° |
| 2026-04-25 08:11 | 54.96411 | -1.78284 | 33342 ft | 449 kts | 327° |
| 2026-04-25 08:11 | 54.99101 | -1.81110 | 32277 ft | 453 kts | 327° |
| 2026-04-25 08:11 | 55.01811 | -1.83959 | 31208 ft | 457 kts | 327° |
| 2026-04-25 08:11 | 55.04542 | -1.86832 | 30128 ft | 460 kts | 327° |
| 2026-04-25 08:12 | 55.07284 | -1.89716 | 28839 ft | 462 kts | 327° |
| 2026-04-25 08:12 | 55.09937 | -1.92886 | 27528 ft | 463 kts | 319° |
| 2026-04-25 08:12 | 55.12277 | -1.96751 | 26264 ft | 464 kts | 311° |
| 2026-04-25 08:12 | 55.13624 | -1.99639 | 25445 ft | 465 kts | 305° |
| 2026-04-25 08:13 | 55.15324 | -2.04419 | 24571 ft | 458 kts | 299° |
| 2026-04-25 08:13 | 55.16889 | -2.09212 | 23743 ft | 452 kts | 300° |
| 2026-04-25 08:13 | 55.18444 | -2.13934 | 22833 ft | 446 kts | 300° |
| 2026-04-25 08:14 | 55.21511 | -2.23235 | 21222 ft | 437 kts | 300° |
| 2026-04-25 08:14 | 55.23019 | -2.27831 | 20430 ft | 434 kts | 300° |
| 2026-04-25 08:14 | 55.24511 | -2.32401 | 19645 ft | 430 kts | 300° |
| 2026-04-25 08:14 | 55.25982 | -2.36926 | 18849 ft | 426 kts | 300° |
| 2026-04-25 08:15 | 55.27443 | -2.41425 | 18009 ft | 423 kts | 300° |
| 2026-04-25 08:15 | 55.28890 | -2.45886 | 17235 ft | 418 kts | 300° |
| 2026-04-25 08:15 | 55.30318 | -2.50295 | 16481 ft | 413 kts | 300° |
| 2026-04-25 08:15 | 55.31725 | -2.54654 | 15714 ft | 409 kts | 300° |
| 2026-04-25 08:16 | 55.33119 | -2.58978 | 14984 ft | 405 kts | 300° |
| 2026-04-25 08:16 | 55.34497 | -2.63258 | 14245 ft | 401 kts | 300° |
| 2026-04-25 08:16 | 55.35865 | -2.67511 | 13651 ft | 394 kts | 300° |
| 2026-04-25 08:16 | 55.37179 | -2.71599 | 13519 ft | 375 kts | 300° |
| 2026-04-25 08:17 | 55.38427 | -2.75489 | 13382 ft | 358 kts | 300° |
| 2026-04-25 08:17 | 55.39621 | -2.79222 | 13242 ft | 342 kts | 300° |
| 2026-04-25 08:17 | 55.40762 | -2.82797 | 13111 ft | 328 kts | 300° |
| 2026-04-25 08:17 | 55.41856 | -2.86228 | 12980 ft | 315 kts | 300° |
| 2026-04-25 08:18 | 55.42911 | -2.89531 | 12849 ft | 304 kts | 300° |
| 2026-04-25 08:18 | 55.43931 | -2.92732 | 12647 ft | 296 kts | 300° |
| 2026-04-25 08:18 | 55.44953 | -2.95846 | 12367 ft | 292 kts | 305° |
| 2026-04-25 08:18 | 55.46302 | -2.98539 | 12107 ft | 289 kts | 319° |
| 2026-04-25 08:19 | 55.47964 | -3.00492 | 11837 ft | 288 kts | 334° |
| 2026-04-25 08:19 | 55.49842 | -3.01699 | 11591 ft | 287 kts | 342° |
| 2026-04-25 08:19 | 55.51729 | -3.02727 | 11169 ft | 288 kts | 342° |
| 2026-04-25 08:19 | 55.53677 | -3.03798 | 10750 ft | 289 kts | 342° |
| 2026-04-25 08:20 | 55.55571 | -3.04843 | 10412 ft | 282 kts | 341° |
| 2026-04-25 08:20 | 55.57435 | -3.05876 | 9928 ft | 279 kts | 341° |
| 2026-04-25 08:20 | 55.59277 | -3.06900 | 9428 ft | 276 kts | 341° |
| 2026-04-25 08:20 | 55.61087 | -3.07906 | 8967 ft | 270 kts | 341° |
| 2026-04-25 08:21 | 55.62876 | -3.08905 | 8417 ft | 270 kts | 341° |
| 2026-04-25 08:21 | 55.64637 | -3.09889 | 7905 ft | 268 kts | 341° |
| 2026-04-25 08:21 | 55.66426 | -3.10888 | 7481 ft | 265 kts | 341° |
| 2026-04-25 08:21 | 55.68139 | -3.11842 | 7410 ft | 261 kts | 341° |
| 2026-04-25 08:22 | 55.69739 | -3.13265 | 7318 ft | 258 kts | 317° |
| 2026-04-25 08:22 | 55.70723 | -3.15908 | 7207 ft | 256 kts | 287° |
| 2026-04-25 08:22 | 55.70786 | -3.19040 | 7144 ft | 259 kts | 256° |
| 2026-04-25 08:22 | 55.70115 | -3.22011 | 7077 ft | 260 kts | 249° |
| 2026-04-25 08:23 | 55.69508 | -3.25032 | 6995 ft | 259 kts | 253° |
| 2026-04-25 08:23 | 55.68995 | -3.28019 | 6878 ft | 247 kts | 255° |
| 2026-04-25 08:23 | 55.68523 | -3.30884 | 6782 ft | 239 kts | 255° |
| 2026-04-25 08:23 | 55.68061 | -3.33661 | 6661 ft | 237 kts | 255° |
| 2026-04-25 08:24 | 55.67577 | -3.36490 | 6521 ft | 236 kts | 254° |
| 2026-04-25 08:24 | 55.67091 | -3.39267 | 6401 ft | 236 kts | 254° |
| 2026-04-25 08:24 | 55.66598 | -3.42043 | 6265 ft | 236 kts | 253° |
| 2026-04-25 08:24 | 55.66098 | -3.44808 | 6133 ft | 235 kts | 253° |
| 2026-04-25 08:25 | 55.65596 | -3.47564 | 6017 ft | 235 kts | 253° |
| 2026-04-25 08:25 | 55.65100 | -3.50274 | 5873 ft | 234 kts | 253° |
| 2026-04-25 08:25 | 55.64713 | -3.53088 | 5744 ft | 229 kts | 268° |
| 2026-04-25 08:25 | 55.64904 | -3.55840 | 5617 ft | 225 kts | 289° |
| 2026-04-25 08:26 | 55.65661 | -3.58237 | 5487 ft | 223 kts | 311° |
| 2026-04-25 08:26 | 55.66766 | -3.60079 | 5363 ft | 214 kts | 317° |
| 2026-04-25 08:26 | 55.67856 | -3.61823 | 5240 ft | 209 kts | 317° |
| 2026-04-25 08:26 | 55.68916 | -3.63531 | 5120 ft | 209 kts | 317° |
| 2026-04-25 08:27 | 55.70011 | -3.65211 | 4995 ft | 208 kts | 319° |
| 2026-04-25 08:27 | 55.71126 | -3.66833 | 4867 ft | 207 kts | 320° |
| 2026-04-25 08:27 | 55.72247 | -3.68444 | 4736 ft | 207 kts | 320° |
| 2026-04-25 08:27 | 55.73363 | -3.70049 | 4624 ft | 206 kts | 320° |
| 2026-04-25 08:28 | 55.74465 | -3.71635 | 4485 ft | 202 kts | 319° |
| 2026-04-25 08:28 | 55.75555 | -3.73223 | 4364 ft | 203 kts | 317° |
| 2026-04-25 08:28 | 55.76594 | -3.74934 | 4234 ft | 204 kts | 318° |
| 2026-04-25 08:28 | 55.77796 | -3.76241 | 4086 ft | 201 kts | 339° |
| 2026-04-25 08:29 | 55.79135 | -3.76720 | 4022 ft | 194 kts | 356° |
| 2026-04-25 08:29 | 55.80450 | -3.76395 | 3954 ft | 187 kts | 17° |
| 2026-04-25 08:29 | 55.81568 | -3.75400 | 3953 ft | 177 kts | 33° |
| 2026-04-25 08:29 | 55.82456 | -3.73868 | 3974 ft | 176 kts | 52° |
| 2026-04-25 08:30 | 55.83107 | -3.72037 | 3990 ft | 174 kts | 56° |
| 2026-04-25 08:30 | 55.83734 | -3.70219 | 3982 ft | 175 kts | 57° |
| 2026-04-25 08:30 | 55.84371 | -3.68367 | 3941 ft | 176 kts | 57° |
| 2026-04-25 08:30 | 55.85015 | -3.66495 | 3761 ft | 175 kts | 57° |
| 2026-04-25 08:31 | 55.85636 | -3.64686 | 3561 ft | 173 kts | 57° |
| 2026-04-25 08:31 | 55.86262 | -3.62861 | 3331 ft | 172 kts | 58° |
| 2026-04-25 08:31 | 55.86884 | -3.61048 | 3103 ft | 171 kts | 58° |
| 2026-04-25 08:31 | 55.87491 | -3.59276 | 2885 ft | 163 kts | 58° |
| 2026-04-25 08:32 | 55.88061 | -3.57611 | 2649 ft | 153 kts | 59° |
| 2026-04-25 08:32 | 55.88592 | -3.56060 | 2474 ft | 142 kts | 59° |
| 2026-04-25 08:32 | 55.89089 | -3.54605 | 2276 ft | 135 kts | 60° |
| 2026-04-25 08:32 | 55.89571 | -3.53195 | 2104 ft | 131 kts | 61° |
| 2026-04-25 08:33 | 55.90038 | -3.51827 | 1920 ft | 129 kts | 60° |
| 2026-04-25 08:33 | 55.90504 | -3.50462 | 1743 ft | 127 kts | 61° |
| 2026-04-25 08:33 | 55.90963 | -3.49115 | 1560 ft | 126 kts | 61° |
| 2026-04-25 08:33 | 55.91412 | -3.47799 | 1385 ft | 125 kts | 62° |
| 2026-04-25 08:34 | 55.91864 | -3.46470 | 1214 ft | 124 kts | 61° |
| 2026-04-25 08:34 | 55.92315 | -3.45147 | 1030 ft | 124 kts | 60° |
| 2026-04-25 08:34 | 55.92761 | -3.43835 | 841 ft | 123 kts | 61° |
| 2026-04-25 08:34 | 55.93204 | -3.42536 | 658 ft | 122 kts | 62° |
| 2026-04-25 08:35 | 55.93646 | -3.41260 | 434 ft | 120 kts | 61° |
| 2026-04-25 08:35 | 55.94082 | -3.39970 | 296 ft | 122 kts | 61° |
| 2026-04-25 08:35 | 55.94522 | -3.38670 | 151 ft | 123 kts | 62° |
| 2026-04-25 08:35 | 55.94926 | -3.37466 | 112 ft | 93 kts | 59° |
| 2026-04-25 08:36 | 55.95171 | -3.36743 | 114 ft | 43 kts | 58° |
| 2026-04-25 08:36 | 55.95261 | -3.36476 | 112 ft | 14 kts | 68° |
| 2026-04-25 08:36 | 55.95219 | -3.36376 | 114 ft | 5 kts | 149° |
| 2026-04-25 08:36 | 55.95201 | -3.36356 | 113 ft | 1 kts | 149° |
| 2026-04-25 08:37 | 55.95182 | -3.36337 | 115 ft | 9 kts | 149° |
| 2026-04-25 08:37 | 55.95119 | -3.36325 | 116 ft | 9 kts | 219° |
| 2026-04-25 08:37 | 55.95071 | -3.36406 | 116 ft | 9 kts | 185° |
| 2026-04-25 08:37 | 55.95016 | -3.36399 | 114 ft | 8 kts | 210° |
| 2026-04-25 08:38 | 55.94987 | -3.36475 | 112 ft | 7 kts | 240° |
| 2026-04-25 08:38 | 55.94962 | -3.36550 | 112 ft | 7 kts | 239° |
| 2026-04-25 08:38 | 55.94938 | -3.36622 | 114 ft | 7 kts | 239° |
| 2026-04-25 08:38 | 55.94910 | -3.36674 | 115 ft | 5 kts | 188° |
| 2026-04-25 08:39 | 55.94885 | -3.36642 | 114 ft | 4 kts | 143° |
| 2026-04-25 08:39 | 55.94864 | -3.36615 | 114 ft | 3 kts | 146° |
| 2026-04-25 08:39 | 55.94859 | -3.36610 | 112 ft | 0 kts | 145° |